Time;durP1;ratioP1;P1;durP2;ratioP2;P2;SDS_P1;SDS_P2;PMS_P1;PMS_P2;Temp;Humidity;BMP_temperature;BMP_pressure;BME280_temperature;BME280_humidity;BME280_pressure;Samples;Min_cycle;Max_cycle;Signal;HPM_P1;HPM_P2
2022/07/15 00:00:04;;;;;;;;;;;;;;;16.10;56.90;100740.22;5057091;28;1064;-56
2022/07/15 00:02:30;;;;;;;;;;;;;;;16.13;56.59;100739.69;5056805;28;1180;-56
2022/07/15 00:04:55;;;;;;;;;;;;;;;16.07;56.57;100741.59;5057030;28;1048;-55
2022/07/15 00:07:21;;;;;;;;;;;;;;;16.05;56.39;100741.03;5056887;28;1139;-53
2022/07/15 00:12:30;;;;;;;;;;;;;;;16.00;56.68;100743.75;5057070;28;961;-54
2022/07/15 00:14:55;;;;;;;;;;;;;;;15.98;56.34;100726.75;5056406;28;2042;-55
2022/07/15 00:17:21;;;;;;;;;;;;;;;16.41;56.82;100727.38;5057016;28;973;-57
2022/07/15 00:19:46;;;;;;;;;;;;;;;17.37;56.55;100732.22;5056685;28;1073;-56
2022/07/15 00:22:12;;;;;;;;;;;;;;;16.75;57.68;100737.81;5056631;28;1001;-55
2022/07/15 00:24:38;;;;;;;;;;;;;;;16.45;57.65;100730.38;5056601;28;1151;-56
2022/07/15 00:27:03;;;;;;;;;;;;;;;16.43;57.22;100732.59;5056535;28;819;-56
2022/07/15 00:29:29;;;;;;;;;;;;;;;16.36;57.15;100732.84;5056257;28;1100;-56
2022/07/15 00:31:54;;;;;;;;;;;;;;;16.33;56.96;100730.66;5038512;28;2055;-56
2022/07/15 00:34:20;;;;;;;;;;;;;;;16.25;56.87;100726.53;5038427;28;1972;-55
2022/07/15 00:36:46;;;;;;;;;;;;;;;16.20;56.56;100732.03;5052297;28;1136;-55
2022/07/15 00:39:11;;;;;;;;;;;;;;;16.12;56.76;100726.22;5056674;28;975;-55
2022/07/15 00:41:37;;;;;;;;;;;;;;;16.16;56.54;100716.34;5056681;28;1088;-59
2022/07/15 00:44:03;;;;;;;;;;;;;;;16.07;56.40;100713.34;5059734;28;1298;-59
2022/07/15 00:46:28;;;;;;;;;;;;;;;16.05;56.43;100716.34;5053668;28;1130;-57
2022/07/15 00:48:54;;;;;;;;;;;;;;;16.04;56.54;100713.88;5029304;28;1239;-58
2022/07/15 00:51:19;;;;;;;;;;;;;;;17.29;56.76;100716.28;5035063;28;1269;-55
2022/07/15 00:53:45;;;;;;;;;;;;;;;16.89;57.51;100713.38;5054313;28;1961;-56
2022/07/15 00:56:10;;;;;;;;;;;;;;;16.62;57.73;100708.19;5028972;28;1069;-54
2022/07/15 00:58:39;;;;;;;;;;;;;;;16.50;57.60;100715.84;5056063;28;989;-55
2022/07/15 01:01:05;;;;;;;;;;;;;;;16.38;57.32;100707.88;5055936;28;1002;-57
2022/07/15 01:03:31;;;;;;;;;;;;;;;16.33;56.99;100699.66;5021633;28;1301;-60
2022/07/15 01:05:56;;;;;;;;;;;;;;;16.23;57.16;100703.22;5038236;28;1508;-55
2022/07/15 01:08:21;;;;;;;;;;;;;;;16.25;56.71;100704.56;5038089;28;1296;-54
2022/07/15 01:10:47;;;;;;;;;;;;;;;16.19;56.72;100699.38;5056303;28;962;-52
2022/07/15 01:13:13;;;;;;;;;;;;;;;16.18;56.64;100700.47;5038289;28;2011;-55
2022/07/15 01:15:38;;;;;;;;;;;;;;;16.18;56.72;100703.22;5037995;28;1109;-58
2022/07/15 01:18:04;;;;;;;;;;;;;;;16.10;56.67;100707.31;5038369;28;1227;-55
2022/07/15 01:20:32;;;;;;;;;;;;;;;16.11;56.67;100692.50;5055564;28;1195;-55
2022/07/15 01:22:59;;;;;;;;;;;;;;;16.06;56.49;100696.06;5059308;28;1227;-57
2022/07/15 01:25:32;;;;;;;;;;;;;;;16.38;57.27;100695.00;5039006;28;1248;-55
2022/07/15 01:27:59;;;;;;;;;;;;;;;17.43;56.58;100700.03;5044928;28;1368;-55
2022/07/15 01:30:26;;;;;;;;;;;;;;;16.76;57.82;100698.28;5066507;28;1247;-55
2022/07/15 01:32:51;;;;;;;;;;;;;;;16.60;57.72;100691.13;5055879;28;1349;-54
2022/07/15 01:35:17;;;;;;;;;;;;;;;16.43;57.56;100689.50;5055228;28;1978;-63
2022/07/15 01:37:45;;;;;;;;;;;;;;;16.43;57.18;100696.91;5038083;28;1271;-61
2022/07/15 01:40:11;;;;;;;;;;;;;;;16.36;56.85;100696.38;5051173;28;996;-65
2022/07/15 01:42:37;;;;;;;;;;;;;;;16.29;56.68;100699.38;5037691;28;1334;-67
2022/07/15 01:45:04;;;;;;;;;;;;;;;16.26;56.86;100691.69;5024193;28;1317;-64
2022/07/15 01:47:29;;;;;;;;;;;;;;;16.19;56.85;100686.47;5030891;28;1175;-62
2022/07/15 01:49:55;;;;;;;;;;;;;;;16.19;56.82;100688.41;5039220;28;1115;-68
2022/07/15 01:52:40;;;;;;;;;;;;;;;16.15;56.60;100681.81;5055046;28;1203;-66
2022/07/15 01:55:06;;;;;;;;;;;;;;;16.10;56.71;100676.31;5055845;28;1909;-67
2022/07/15 01:57:31;;;;;;;;;;;;;;;16.06;56.41;100674.13;5037567;28;1091;-65
2022/07/15 01:59:57;;;;;;;;;;;;;;;16.06;56.46;100684.25;5037720;28;1195;-64
2022/07/15 02:02:42;;;;;;;;;;;;;;;16.02;56.31;100675.75;5059917;28;981;-63
2022/07/15 02:05:07;;;;;;;;;;;;;;;16.85;57.07;100676.56;5055606;28;1017;-67
2022/07/15 02:07:34;;;;;;;;;;;;;;;17.03;57.36;100679.84;5037657;28;1324;-62
2022/07/15 02:09:59;;;;;;;;;;;;;;;16.62;57.80;100679.88;5037282;28;2027;-68
2022/07/15 02:12:25;;;;;;;;;;;;;;;16.43;57.53;100680.44;5037668;28;1298;-68
2022/07/15 02:14:54;;;;;;;;;;;;;;;16.37;57.36;100685.13;5040980;28;1914;-64
2022/07/15 02:17:22;;;;;;;;;;;;;;;16.36;57.04;100686.19;5044791;28;1140;-68
2022/07/15 02:19:48;;;;;;;;;;;;;;;16.27;57.22;100679.63;5038947;28;1260;-61
2022/07/15 02:22:14;;;;;;;;;;;;;;;16.26;56.93;100683.47;5041288;28;1337;-60
2022/07/15 02:24:40;;;;;;;;;;;;;;;16.22;56.95;100679.63;5058934;28;1037;-64
2022/07/15 02:27:05;;;;;;;;;;;;;;;16.18;56.68;100684.81;5034751;28;1052;-59
2022/07/15 02:29:31;;;;;;;;;;;;;;;16.10;56.77;100688.09;5041202;28;1592;-61
2022/07/15 02:31:57;;;;;;;;;;;;;;;16.12;56.52;100679.59;5043725;28;1319;-60
2022/07/15 02:34:23;;;;;;;;;;;;;;;16.03;56.69;100682.91;5040777;28;1986;-59
2022/07/15 02:36:48;;;;;;;;;;;;;;;16.01;56.53;100689.75;5040500;28;1117;-60
2022/07/15 02:39:14;;;;;;;;;;;;;;;17.19;56.95;100683.38;5071024;28;1302;-60
2022/07/15 02:41:41;;;;;;;;;;;;;;;16.89;57.52;100677.66;5047931;28;1244;-61
2022/07/15 02:44:09;;;;;;;;;;;;;;;16.60;57.77;100689.22;5038581;28;1231;-62
2022/07/15 02:46:37;;;;;;;;;;;;;;;16.43;57.49;100680.44;5033799;28;1352;-60
2022/07/15 02:49:03;;;;;;;;;;;;;;;16.36;57.26;100682.66;5040907;28;1167;-65
2022/07/15 02:51:28;;;;;;;;;;;;;;;16.30;57.18;100681.81;5040314;28;1303;-66
2022/07/15 02:53:54;;;;;;;;;;;;;;;16.23;56.99;100682.09;5040420;28;1907;-65
2022/07/15 02:56:22;;;;;;;;;;;;;;;16.22;56.75;100682.38;5037333;28;1214;-63
2022/07/15 02:58:48;;;;;;;;;;;;;;;16.18;57.00;100684.00;5039463;28;2100;-66
2022/07/15 03:01:14;;;;;;;;;;;;;;;16.15;56.74;100688.13;5040287;28;1131;-64
2022/07/15 03:03:40;;;;;;;;;;;;;;;16.11;56.45;100686.19;5032355;28;1223;-65
2022/07/15 03:06:08;;;;;;;;;;;;;;;16.07;56.51;100681.25;5038768;28;1375;-63
2022/07/15 03:08:35;;;;;;;;;;;;;;;16.04;56.68;100680.97;5038422;28;1311;-62
2022/07/15 03:11:00;;;;;;;;;;;;;;;16.06;56.45;100679.59;5029808;28;1279;-60
2022/07/15 03:13:26;;;;;;;;;;;;;;;15.99;56.55;100679.06;5042481;28;1972;-60
2022/07/15 03:15:52;;;;;;;;;;;;;;;16.07;56.78;100680.41;5036109;28;1223;-62
2022/07/15 03:18:18;;;;;;;;;;;;;;;17.38;56.62;100683.56;5040314;28;1470;-66
2022/07/15 03:20:45;;;;;;;;;;;;;;;16.74;57.62;100686.72;5057905;28;1072;-63
2022/07/15 03:23:11;;;;;;;;;;;;;;;16.51;57.96;100673.56;5040364;28;1406;-61
2022/07/15 03:25:37;;;;;;;;;;;;;;;16.41;57.42;100672.50;5056788;28;1065;-62
2022/07/15 03:28:07;;;;;;;;;;;;;;;16.32;57.45;100676.06;5036568;28;1251;-62
2022/07/15 03:30:36;;;;;;;;;;;;;;;16.22;57.16;100674.94;5034881;28;1123;-62
2022/07/15 03:33:01;;;;;;;;;;;;;;;16.20;57.03;100679.06;5039563;28;1095;-61
2022/07/15 03:35:27;;;;;;;;;;;;;;;16.16;56.99;100688.94;5059762;28;1913;-62
2022/07/15 03:37:53;;;;;;;;;;;;;;;16.13;56.69;100684.00;5039633;28;1179;-61
2022/07/15 03:40:18;;;;;;;;;;;;;;;16.10;56.64;100679.06;5038443;28;1248;-62
2022/07/15 03:46:09;;;;;;;;;;;;;;;17.40;56.83;100687.69;5055264;28;871;-62
2022/07/15 03:48:37;;;;;;;;;;;;;;;16.88;57.85;100683.41;5033763;28;1385;-63
2022/07/15 03:51:03;;;;;;;;;;;;;;;16.57;57.72;100689.75;5044000;28;1529;-63
2022/07/15 03:53:29;;;;;;;;;;;;;;;16.51;57.61;100684.53;5064549;28;1963;-61
2022/07/15 03:55:54;;;;;;;;;;;;;;;16.42;57.14;100681.53;5042793;28;1140;-63
2022/07/15 03:58:20;;;;;;;;;;;;;;;16.33;57.21;100678.53;5040736;28;1083;-62
2022/07/15 04:00:45;;;;;;;;;;;;;;;16.33;56.99;100683.19;5056758;28;1266;-63
2022/07/15 04:03:11;;;;;;;;;;;;;;;16.23;57.16;100686.75;5061384;28;1080;-65
2022/07/15 04:05:38;;;;;;;;;;;;;;;16.20;57.16;100679.91;5037145;28;1494;-61
2022/07/15 04:08:03;;;;;;;;;;;;;;;16.15;56.84;100682.63;5057003;28;1191;-63
2022/07/15 04:10:29;;;;;;;;;;;;;;;16.18;56.84;100689.50;5039690;28;1193;-58
2022/07/15 04:12:54;;;;;;;;;;;;;;;16.12;56.62;100691.41;5037812;28;1255;-58
2022/07/15 04:15:20;;;;;;;;;;;;;;;16.08;56.92;100691.13;5057035;28;1917;-58
2022/07/15 04:17:45;;;;;;;;;;;;;;;16.11;57.00;100691.69;5038916;28;1222;-58
2022/07/15 04:20:12;;;;;;;;;;;;;;;17.38;56.79;100697.31;5038728;28;1142;-58
2022/07/15 04:22:40;;;;;;;;;;;;;;;16.81;57.89;100697.44;5038983;28;2325;-58
2022/07/15 04:25:07;;;;;;;;;;;;;;;16.57;57.87;100697.19;5011347;28;1196;-58
2022/07/15 04:27:32;;;;;;;;;;;;;;;16.44;57.85;100690.34;5038631;28;1148;-58
2022/07/15 04:29:57;;;;;;;;;;;;;;;16.38;57.47;100696.91;5058297;28;953;-58
2022/07/15 04:32:26;;;;;;;;;;;;;;;16.35;57.28;100698.28;5040179;28;1152;-58
2022/07/15 04:34:54;;;;;;;;;;;;;;;16.26;57.34;100691.69;5038417;28;1963;-58
2022/07/15 04:37:21;;;;;;;;;;;;;;;16.24;57.02;100699.38;5038525;28;1129;-58
2022/07/15 04:39:51;;;;;;;;;;;;;;;16.23;56.81;100692.25;5038191;28;1355;-58
2022/07/15 04:42:16;;;;;;;;;;;;;;;16.21;56.67;100695.25;5043919;28;1180;-58
2022/07/15 04:44:43;;;;;;;;;;;;;;;16.16;56.89;100692.50;5038279;28;1337;-58
2022/07/15 04:47:10;;;;;;;;;;;;;;;16.12;56.95;100696.06;5029286;28;1375;-58
2022/07/15 04:52:24;;;;;;;;;;;;;;;16.11;56.81;100694.44;5056127;28;1238;-58
2022/07/15 04:54:53;;;;;;;;;;;;;;;16.04;56.88;100702.91;5038504;28;1906;-58
2022/07/15 04:57:20;;;;;;;;;;;;;;;16.06;56.81;100703.44;5038272;28;1132;-58
2022/07/15 04:59:45;;;;;;;;;;;;;;;16.66;57.34;100698.28;5038262;28;1102;-58
2022/07/15 05:02:15;;;;;;;;;;;;;;;17.01;57.25;100696.63;5037903;28;1164;-57
2022/07/15 05:04:44;;;;;;;;;;;;;;;16.62;57.87;100694.44;5037727;28;1123;-58
2022/07/15 05:07:10;;;;;;;;;;;;;;;16.49;57.69;100695.81;5031066;28;1133;-58
2022/07/15 05:09:37;;;;;;;;;;;;;;;16.40;57.59;100689.22;5038032;28;1198;-58
2022/07/15 05:12:03;;;;;;;;;;;;;;;16.38;57.29;100696.91;5028792;28;1254;-58
2022/07/15 05:14:38;;;;;;;;;;;;;;;16.28;57.21;100691.44;5037936;28;1926;-58
2022/07/15 05:17:03;;;;;;;;;;;;;;;16.24;57.39;100693.88;5037769;28;1350;-58
2022/07/15 05:19:29;;;;;;;;;;;;;;;16.24;56.97;100691.13;5037369;28;1180;-58
2022/07/15 05:21:55;;;;;;;;;;;;;;;16.20;57.04;100690.03;5055941;28;988;-57
2022/07/15 05:24:20;;;;;;;;;;;;;;;16.19;57.14;100694.72;5024911;28;1334;-58
2022/07/15 05:26:47;;;;;;;;;;;;;;;16.13;56.95;100695.81;5037843;28;1184;-58
2022/07/15 05:29:13;;;;;;;;;;;;;;;16.15;56.84;100692.78;5037637;28;1159;-58
2022/07/15 05:31:39;;;;;;;;;;;;;;;16.11;56.82;100691.69;5039621;28;1226;-58
2022/07/15 05:34:06;;;;;;;;;;;;;;;16.08;56.98;100691.13;5037663;28;1905;-58
2022/07/15 05:36:34;;;;;;;;;;;;;;;16.07;56.74;100684.00;5037857;28;1433;-59
2022/07/15 05:39:00;;;;;;;;;;;;;;;16.09;56.90;100694.72;5037534;28;1447;-58
2022/07/15 05:41:25;;;;;;;;;;;;;;;16.03;56.94;100696.63;5037294;28;1184;-58
2022/07/15 05:43:51;;;;;;;;;;;;;;;16.03;56.95;100693.88;5055635;28;1002;-58
2022/07/15 05:46:17;;;;;;;;;;;;;;;16.02;56.68;100694.97;5055789;28;969;-58
2022/07/15 05:48:49;;;;;;;;;;;;;;;16.01;56.84;100693.31;5041446;28;1155;-58
2022/07/15 05:51:15;;;;;;;;;;;;;;;15.99;56.76;100694.66;5031387;28;1123;-58
2022/07/15 05:53:41;;;;;;;;;;;;;;;17.73;53.18;100679.81;5037579;28;1965;-58
2022/07/15 05:56:07;;;;;;;;;;;;;;;16.94;54.28;100682.31;5037735;28;1170;-57
2022/07/15 05:58:33;;;;;;;;;;;;;;;18.37;51.77;100679.13;5039490;28;1001;-58
2022/07/15 06:00:58;;;;;;;;;;;;;;;16.84;55.62;100676.84;5038072;28;1159;-58
2022/07/15 06:03:29;;;;;;;;;;;;;;;16.25;57.50;100681.81;5026117;28;1066;-57
2022/07/15 06:05:55;;;;;;;;;;;;;;;18.63;51.83;100682.50;5036489;28;1508;-58
2022/07/15 06:08:20;;;;;;;;;;;;;;;14.89;61.05;100678.06;5042431;28;1033;-57
2022/07/15 06:10:46;;;;;;;;;;;;;;;17.84;54.70;100677.84;5037710;28;1182;-58
2022/07/15 06:13:11;;;;;;;;;;;;;;;18.03;53.34;100675.25;5037981;28;1318;-58
2022/07/15 06:15:38;;;;;;;;;;;;;;;16.05;59.82;100666.97;5026958;28;1910;-58
2022/07/15 06:18:07;;;;;;;;;;;;;;;18.97;51.91;100676.09;5042983;28;1246;-58
2022/07/15 06:20:33;;;;;;;;;;;;;;;15.62;60.18;100668.25;5036575;28;1076;-57
2022/07/15 06:22:59;;;;;;;;;;;;;;;16.65;55.50;100663.69;5038635;28;1225;-58
2022/07/15 06:25:25;;;;;;;;;;;;;;;16.80;53.40;100667.50;5027344;28;1103;-57
2022/07/15 06:27:51;;;;;;;;;;;;;;;18.17;54.09;100660.88;5044330;28;1346;-58
2022/07/15 06:30:16;;;;;;;;;;;;;;;17.42;53.90;100668.16;5039938;28;1044;-58
2022/07/15 06:32:42;;;;;;;;;;;;;;;17.25;52.85;100669.34;5035225;28;1539;-58
2022/07/15 06:35:08;;;;;;;;;;;;;;;17.20;52.03;100663.03;5038940;28;1918;-58
2022/07/15 06:37:33;;;;;;;;;;;;;;;17.07;51.27;100659.78;5038688;28;1204;-58
2022/07/15 06:39:59;;;;;;;;;;;;;;;17.96;53.10;100661.00;5029965;28;1096;-58
2022/07/15 06:42:24;;;;;;;;;;;;;;;17.44;52.82;100652.22;5043216;28;832;-58
2022/07/15 06:45:01;;;;;;;;;;;;;;;17.29;52.01;100655.84;5037478;28;1110;-58
2022/07/15 06:47:28;;;;;;;;;;;;;;;17.55;52.33;100651.03;5034690;28;1060;-58
2022/07/15 06:49:56;;;;;;;;;;;;;;;17.68;52.67;100662.53;5037071;28;1103;-58
2022/07/15 06:52:22;;;;;;;;;;;;;;;17.37;52.05;100655.25;5041687;28;1215;-58
2022/07/15 06:54:48;;;;;;;;;;;;;;;17.31;51.17;100659.13;5040046;28;1914;-58
2022/07/15 06:57:16;;;;;;;;;;;;;;;17.32;50.60;100644.31;5040157;28;1231;-57
2022/07/15 06:59:42;;;;;;;;;;;;;;;17.20;50.48;100657.53;5057768;28;1020;-58
2022/07/15 07:02:07;;;;;;;;;;;;;;;17.40;50.80;100657.47;5040018;28;1123;-58
2022/07/15 07:04:33;;;;;;;;;;;;;;;17.76;51.79;100665.50;5063455;28;969;-57
2022/07/15 07:06:59;;;;;;;;;;;;;;;17.50;51.52;100650.25;5039923;28;1322;-58
2022/07/15 07:09:24;;;;;;;;;;;;;;;17.41;50.82;100655.53;5044208;28;1180;-58
2022/07/15 07:11:51;;;;;;;;;;;;;;;17.25;50.48;100654.75;5043659;28;1233;-57
2022/07/15 07:14:17;;;;;;;;;;;;;;;17.33;49.73;100662.41;5060786;28;1905;-58
2022/07/15 07:16:42;;;;;;;;;;;;;;;17.23;49.67;100662.47;5060209;28;989;-57
2022/07/15 07:19:08;;;;;;;;;;;;;;;17.19;49.29;100659.44;5057051;28;950;-57
2022/07/15 07:21:33;;;;;;;;;;;;;;;17.12;49.36;100658.13;5057500;28;1052;-58
2022/07/15 07:23:59;;;;;;;;;;;;;;;17.74;50.05;100659.47;5057793;28;1096;-58
2022/07/15 07:26:24;;;;;;;;;;;;;;;15.80;56.19;100664.22;5057751;28;1053;-58
2022/07/15 07:28:51;;;;;;;;;;;;;;;17.33;55.09;100667.91;5057392;28;1100;-58
2022/07/15 07:31:17;;;;;;;;;;;;;;;19.04;52.17;100664.75;5060401;28;936;-58
2022/07/15 07:33:42;;;;;;;;;;;;;;;14.94;62.49;100660.81;5057751;28;1997;-57
2022/07/15 07:36:08;;;;;;;;;;;;;;;18.43;55.01;100655.97;5057639;28;961;-58
2022/07/15 07:38:33;;;;;;;;;;;;;;;16.95;58.37;100652.94;5057624;28;961;-58
2022/07/15 07:40:58;;;;;;;;;;;;;;;16.16;58.25;100648.63;5057256;28;1071;-57
2022/07/15 07:43:24;;;;;;;;;;;;;;;17.08;53.78;100644.94;5057081;28;921;-58
2022/07/15 07:45:50;;;;;;;;;;;;;;;17.14;52.30;100639.41;5057038;28;1029;-57
2022/07/15 07:48:16;;;;;;;;;;;;;;;17.23;51.44;100648.72;5057429;28;989;-57
2022/07/15 07:50:42;;;;;;;;;;;;;;;17.21;50.97;100642.72;5057024;28;1211;-57
2022/07/15 07:53:07;;;;;;;;;;;;;;;17.15;50.46;100643.81;5056593;28;1211;-59
2022/07/15 07:55:33;;;;;;;;;;;;;;;17.14;50.16;100642.16;5056754;28;1985;-57
2022/07/15 07:57:59;;;;;;;;;;;;;;;17.23;49.64;100651.47;5057201;28;1081;-59
2022/07/15 08:00:26;;;;;;;;;;;;;;;17.17;49.56;100647.94;5057496;28;954;-59
2022/07/15 08:02:52;;;;;;;;;;;;;;;18.03;51.43;100646.94;5062344;28;1048;-58
2022/07/15 08:05:17;;;;;;;;;;;;;;;17.49;51.71;100643.09;5062572;28;953;-60
2022/07/15 08:07:43;;;;;;;;;;;;;;;17.39;50.80;100639.31;5061660;28;1139;-61
2022/07/15 08:10:09;;;;;;;;;;;;;;;17.28;50.44;100635.78;5060328;28;1009;-62
2022/07/15 08:12:34;;;;;;;;;;;;;;;17.23;49.97;100645.97;5059507;28;1001;-62
2022/07/15 08:15:00;;;;;;;;;;;;;;;17.26;49.57;100639.91;5058327;28;2044;-61
2022/07/15 08:17:25;;;;;;;;;;;;;;;17.29;49.39;100633.84;5056567;28;1056;-59
2022/07/15 08:19:51;;;;;;;;;;;;;;;17.28;48.99;100626.72;5056162;28;1014;-60
2022/07/15 08:25:43;;;;;;;;;;;;;;;16.81;53.63;100638.94;5056814;28;961;-59
2022/07/15 08:28:09;;;;;;;;;;;;;;;16.82;56.13;100630.44;5061557;28;1041;-59
2022/07/15 08:30:34;;;;;;;;;;;;;;;19.09;52.53;100634.38;5057732;28;1005;-60
2022/07/15 08:33:00;;;;;;;;;;;;;;;15.46;61.29;100629.84;5055474;28;1021;-60
2022/07/15 08:35:25;;;;;;;;;;;;;;;17.94;56.65;100632.97;5056415;28;1980;-59
2022/07/15 08:37:51;;;;;;;;;;;;;;;18.30;55.34;100625.25;5038264;28;958;-63
2022/07/15 08:40:16;;;;;;;;;;;;;;;15.47;62.10;100616.94;5061820;28;1437;-58
2022/07/15 08:42:43;;;;;;;;;;;;;;;16.96;54.74;100619.72;5060878;28;847;-59
2022/07/15 08:45:09;;;;;;;;;;;;;;;17.28;52.46;100619.28;5056863;28;1135;-59
2022/07/15 08:47:34;;;;;;;;;;;;;;;17.30;51.47;100621.75;5058949;28;937;-62
2022/07/15 08:50:00;;;;;;;;;;;;;;;17.32;50.78;100616.81;5038282;28;1186;-63
2022/07/15 08:52:25;;;;;;;;;;;;;;;17.30;50.41;100613.50;5034211;28;1141;-61
2022/07/15 08:54:51;;;;;;;;;;;;;;;17.31;49.98;100609.66;5036869;28;1961;-61
2022/07/15 08:57:17;;;;;;;;;;;;;;;17.28;50.06;100616.56;5037456;28;1171;-62
2022/07/15 08:59:45;;;;;;;;;;;;;;;17.28;49.57;100605.56;5036613;28;1053;-60
2022/07/15 09:02:11;;;;;;;;;;;;;;;17.21;49.31;100615.22;5037492;28;1024;-59
2022/07/15 09:04:57;;;;;;;;;;;;;;;17.19;49.57;100609.19;5041118;28;1045;-58
2022/07/15 09:07:22;;;;;;;;;;;;;;;17.25;49.03;100611.63;5040001;28;1263;-61
2022/07/15 09:09:48;;;;;;;;;;;;;;;17.63;49.85;100597.41;5038783;28;996;-61
2022/07/15 09:12:13;;;;;;;;;;;;;;;15.54;56.47;100606.53;5039820;28;978;-59
2022/07/15 09:14:41;;;;;;;;;;;;;;;17.50;55.06;100617.25;5035877;28;1906;-61
2022/07/15 09:17:10;;;;;;;;;;;;;;;18.86;53.02;100619.44;5035991;28;1055;-60
2022/07/15 09:19:54;;;;;;;;;;;;;;;15.18;61.90;100612.75;5039287;28;1143;-61
2022/07/15 09:22:19;;;;;;;;;;;;;;;18.91;54.23;100614.72;5037219;28;1001;-64
2022/07/15 09:24:50;;;;;;;;;;;;;;;15.95;61.15;100601.16;5040871;28;1197;-63
2022/07/15 09:27:29;;;;;;;;;;;;;;;17.01;59.09;100611.47;5040325;28;961;-64
2022/07/15 09:38:07;;;;;;;;;;;;;;;17.25;52.26;100605.28;5038712;28;1021;-61
2022/07/15 09:40:33;;;;;;;;;;;;;;;17.34;51.37;100600.03;5046143;28;1044;-61
2022/07/15 09:43:05;;;;;;;;;;;;;;;17.36;50.93;100606.91;5042551;28;1047;-60
2022/07/15 09:45:30;;;;;;;;;;;;;;;17.34;50.38;100598.09;5044503;28;974;-61
2022/07/15 09:48:08;;;;;;;;;;;;;;;17.22;50.34;100594.88;5043690;28;1068;-61
2022/07/15 09:50:36;;;;;;;;;;;;;;;17.22;50.19;100590.22;5042236;28;1464;-59
2022/07/15 09:53:11;;;;;;;;;;;;;;;17.31;49.74;100592.38;5048016;28;1036;-61
2022/07/15 09:55:37;;;;;;;;;;;;;;;17.37;49.14;100591.22;5062301;28;1910;-64
2022/07/15 09:58:07;;;;;;;;;;;;;;;17.37;49.32;100589.28;5059396;28;1570;-58
2022/07/15 10:00:33;;;;;;;;;;;;;;;17.24;49.37;100596.22;5059807;28;1215;-59
2022/07/15 10:02:58;;;;;;;;;;;;;;;17.32;49.16;100589.34;5065349;28;942;-58
2022/07/15 10:05:27;;;;;;;;;;;;;;;17.25;49.21;100589.63;5059591;28;1068;-58
2022/07/15 10:07:55;;;;;;;;;;;;;;;17.28;48.96;100580.00;5033688;28;953;-57
2022/07/15 10:10:21;;;;;;;;;;;;;;;17.30;48.76;100580.53;5041643;28;1021;-58
2022/07/15 10:13:16;;;;;;;;;;;;;;;17.30;48.68;100591.53;5062752;28;1215;-58
2022/07/15 10:15:47;;;;;;;;;;;;;;;17.25;48.76;100581.41;4986107;28;2004;-56
2022/07/15 10:18:31;;;;;;;;;;;;;;;17.32;48.39;100589.34;5059841;28;989;-59
2022/07/15 10:20:59;;;;;;;;;;;;;;;17.33;48.30;100579.97;5055442;28;1157;-56
2022/07/15 10:23:34;;;;;;;;;;;;;;;17.32;48.59;100578.34;5058908;28;973;-58
2022/07/15 10:26:01;;;;;;;;;;;;;;;17.36;48.36;100578.59;5065221;28;958;-57
2022/07/15 10:28:32;;;;;;;;;;;;;;;17.36;48.26;100579.41;5040289;28;1041;-56
2022/07/15 10:31:17;;;;;;;;;;;;;;;17.28;48.53;100566.28;5062840;28;1080;-55
2022/07/15 10:33:42;;;;;;;;;;;;;;;17.31;48.33;100576.69;5058144;28;1982;-57
2022/07/15 10:36:08;;;;;;;;;;;;;;;17.31;48.26;100575.88;5040371;28;958;-57
2022/07/15 10:38:34;;;;;;;;;;;;;;;17.44;47.81;100567.00;5064546;28;981;-56
2022/07/15 10:41:13;;;;;;;;;;;;;;;17.38;48.16;100574.44;5063422;28;1041;-56
2022/07/15 10:43:51;;;;;;;;;;;;;;;17.39;48.14;100565.09;5060637;28;1053;-56
2022/07/15 10:46:16;;;;;;;;;;;;;;;17.37;48.08;100567.31;5058214;28;1108;-56
2022/07/15 10:48:42;;;;;;;;;;;;;;;17.36;48.09;100562.09;5057707;28;1133;-54
2022/07/15 10:51:07;;;;;;;;;;;;;;;17.39;48.12;100564.25;5060169;28;989;-56
2022/07/15 10:53:33;;;;;;;;;;;;;;;17.34;48.20;100559.63;5040146;28;1906;-56
2022/07/15 10:56:17;;;;;;;;;;;;;;;17.38;47.95;100548.91;5040972;28;1251;-57
2022/07/15 10:59:02;;;;;;;;;;;;;;;17.37;47.94;100559.06;5058579;28;1207;-55
2022/07/15 11:01:28;;;;;;;;;;;;;;;17.41;47.84;100565.63;5061208;28;1890;-57
2022/07/15 11:04:13;;;;;;;;;;;;;;;17.36;48.15;100551.94;5033197;28;961;-55
2022/07/15 11:06:57;;;;;;;;;;;;;;;17.37;48.22;100547.25;5048228;28;1366;-56
2022/07/15 11:09:42;;;;;;;;;;;;;;;17.35;47.96;100544.78;5060960;28;1117;-54
2022/07/15 11:12:07;;;;;;;;;;;;;;;17.42;48.11;100539.78;5060554;28;1032;-57
2022/07/15 11:14:39;;;;;;;;;;;;;;;17.41;47.96;100545.56;5059912;28;1926;-56
2022/07/15 11:17:05;;;;;;;;;;;;;;;17.34;48.13;100548.63;5040135;28;1072;-55
2022/07/15 11:19:31;;;;;;;;;;;;;;;17.25;48.21;100553.91;5059174;28;1179;-57
2022/07/15 11:21:56;;;;;;;;;;;;;;;17.34;47.93;100556.88;5057786;28;1045;-54
2022/07/15 11:24:22;;;;;;;;;;;;;;;17.34;48.03;100547.81;5063890;28;977;-55
2022/07/15 11:26:48;;;;;;;;;;;;;;;17.29;47.96;100554.16;5063354;28;1086;-56
2022/07/15 11:29:13;;;;;;;;;;;;;;;17.39;47.72;100553.28;5057536;28;993;-56
2022/07/15 11:31:39;;;;;;;;;;;;;;;17.37;48.27;100559.06;5061536;28;1136;-55
2022/07/15 11:34:04;;;;;;;;;;;;;;;16.23;53.41;100552.34;5057098;28;1977;-57
2022/07/15 11:36:30;;;;;;;;;;;;;;;17.20;54.21;100558.63;5063706;28;958;-55
2022/07/15 11:38:58;;;;;;;;;;;;;;;19.23;51.31;100557.31;5062674;28;1207;-57
2022/07/15 11:46:52;;;;;;;;;;;;;;;16.18;59.99;100549.59;5058840;28;981;-57
2022/07/15 11:49:27;;;;;;;;;;;;;;;16.38;57.26;100546.81;5059010;28;1080;-55
2022/07/15 11:51:52;;;;;;;;;;;;;;;17.23;52.87;100542.38;5058882;28;978;-55
2022/07/15 11:54:18;;;;;;;;;;;;;;;17.25;51.79;100547.56;5057542;28;1905;-56
2022/07/15 11:56:51;;;;;;;;;;;;;;;17.39;50.52;100548.63;5057609;28;952;-57
2022/07/15 11:59:17;;;;;;;;;;;;;;;17.35;50.46;100549.44;5062673;28;1092;-57
2022/07/15 12:01:42;;;;;;;;;;;;;;;17.37;49.60;100539.00;5058339;28;1039;-53
2022/07/15 12:04:10;;;;;;;;;;;;;;;17.38;49.42;100537.91;5062325;28;1025;-55
2022/07/15 12:06:36;;;;;;;;;;;;;;;17.43;49.07;100538.69;5061343;28;978;-56
2022/07/15 12:09:03;;;;;;;;;;;;;;;17.41;48.89;100545.56;5058339;28;994;-57
2022/07/15 12:11:30;;;;;;;;;;;;;;;17.40;48.94;100542.03;5058708;28;993;-56
2022/07/15 12:13:56;;;;;;;;;;;;;;;17.41;48.82;100532.66;5059226;28;1902;-56
2022/07/15 12:16:23;;;;;;;;;;;;;;;17.44;48.44;100534.81;5036027;28;1076;-58
2022/07/15 12:18:49;;;;;;;;;;;;;;;17.41;48.71;100535.41;5038342;28;1077;-56
2022/07/15 12:21:15;;;;;;;;;;;;;;;17.40;48.56;100539.28;5057275;28;1101;-56
2022/07/15 12:23:40;;;;;;;;;;;;;;;17.44;48.40;100525.75;5039256;28;974;-57
2022/07/15 12:26:06;;;;;;;;;;;;;;;17.40;48.54;100527.44;5062866;28;954;-57
2022/07/15 12:28:32;;;;;;;;;;;;;;;17.39;48.52;100528.53;5061620;28;1102;-51
2022/07/15 12:30:57;;;;;;;;;;;;;;;17.39;48.49;100518.38;5056544;28;965;-55
2022/07/15 12:33:23;;;;;;;;;;;;;;;17.36;48.38;100524.44;5056615;28;933;-56
2022/07/15 12:35:48;;;;;;;;;;;;;;;17.48;48.14;100532.34;5037442;28;1917;-56
2022/07/15 12:38:30;;;;;;;;;;;;;;;17.48;48.12;100528.78;5062543;28;1068;-57
2022/07/15 12:41:08;;;;;;;;;;;;;;;17.34;48.32;100526.66;5057983;28;977;-57
2022/07/15 12:43:54;;;;;;;;;;;;;;;17.44;47.91;100523.00;5057255;28;1052;-55
2022/07/15 12:46:19;;;;;;;;;;;;;;;17.43;47.68;100530.44;5053206;28;1045;-52
2022/07/15 12:48:48;;;;;;;;;;;;;;;17.43;47.94;100524.94;5058239;28;1179;-53
2022/07/15 12:51:16;;;;;;;;;;;;;;;17.43;47.90;100519.44;5055953;28;1068;-55
2022/07/15 12:53:42;;;;;;;;;;;;;;;17.42;47.90;100530.72;5057152;28;1897;-57
2022/07/15 12:56:07;;;;;;;;;;;;;;;17.41;47.91;100524.41;5055448;28;1178;-58
2022/07/15 12:58:35;;;;;;;;;;;;;;;17.31;47.88;100532.72;5056020;28;809;-58
2022/07/15 13:01:14;;;;;;;;;;;;;;;17.36;47.82;100538.19;5061952;28;1132;-56
2022/07/15 13:03:39;;;;;;;;;;;;;;;17.43;47.42;100530.44;5061506;28;1100;-56
2022/07/15 13:06:05;;;;;;;;;;;;;;;17.42;47.63;100528.78;5060734;28;1223;-59
2022/07/15 13:08:31;;;;;;;;;;;;;;;17.35;47.86;100528.31;5053307;28;990;-60
2022/07/15 13:10:57;;;;;;;;;;;;;;;17.39;47.80;100537.63;5058999;28;1206;-59
2022/07/15 13:13:23;;;;;;;;;;;;;;;17.41;47.68;100540.09;5058247;28;962;-58